Time;durP1;ratioP1;P1;durP2;ratioP2;P2;SDS_P1;SDS_P2;PMS_P1;PMS_P2;Temp;Humidity;BMP_temperature;BMP_pressure;BME280_temperature;BME280_humidity;BME280_pressure;Samples;Min_cycle;Max_cycle;Signal;HPM_P1;HPM_P2
2022/04/24 00:00:42;;;;;;;98.45;56.10;;;;;;;5.69;62.44;99395.05;2054162;86;27688;-73
2022/04/24 00:03:43;;;;;;;82.85;50.43;;;;;;;5.68;62.24;99399.96;2054137;86;28482;-72
2022/04/24 00:06:48;;;;;;;72.90;47.88;;;;;;;5.63;62.68;99394.38;2054023;86;31075;-72
2022/04/24 00:09:51;;;;;;;78.65;49.38;;;;;;;5.60;62.86;99393.20;2054076;86;32974;-72
2022/04/24 00:12:53;;;;;;;78.67;47.83;;;;;;;5.58;63.37;99392.86;2054081;86;29327;-72
2022/04/24 00:15:55;;;;;;;80.05;49.35;;;;;;;5.55;63.07;99385.89;2054160;86;27971;-72
2022/04/24 00:18:57;;;;;;;77.32;48.83;;;;;;;5.52;63.02;99388.68;2054023;86;28629;-72
2022/04/24 00:21:59;;;;;;;75.40;47.38;;;;;;;5.47;63.08;99379.59;2053630;86;31077;-72
2022/04/24 00:25:03;;;;;;;78.95;47.73;;;;;;;5.43;63.40;99380.64;2053970;86;32997;-71
2022/04/24 00:28:06;;;;;;;74.45;46.88;;;;;;;5.43;63.57;99375.81;2054148;86;29329;-72
2022/04/24 00:31:08;;;;;;;74.47;47.75;;;;;;;5.42;63.63;99377.59;2054093;85;27641;-72
2022/04/24 00:34:10;;;;;;;71.70;46.48;;;;;;;5.39;63.84;99378.20;2053754;86;28731;-72
2022/04/24 00:37:12;;;;;;;67.90;45.58;;;;;;;5.38;63.92;99369.34;2053998;86;31048;-72
2022/04/24 00:40:14;;;;;;;70.70;45.28;;;;;;;5.39;63.98;99367.57;2054034;86;32967;-72
2022/04/24 00:43:19;;;;;;;70.60;41.13;;;;;;;5.38;63.99;99368.50;2053741;86;29391;-72
2022/04/24 00:46:46;;;;;;;59.38;39.27;;;;;;;5.38;64.50;99368.50;2054127;86;27689;-72
2022/04/24 00:49:48;;;;;;;62.13;38.83;;;;;;;5.38;64.19;99369.83;2054036;86;28650;-72
2022/04/24 00:52:51;;;;;;;61.20;39.50;;;;;;;5.37;64.14;99365.00;2054113;86;31022;-72
2022/04/24 00:55:56;;;;;;;57.38;38.50;;;;;;;5.37;63.88;99362.78;2054023;86;32976;-72
2022/04/24 00:59:00;;;;;;;61.98;39.38;;;;;;;5.35;64.02;99355.34;2054036;86;29341;-72
2022/04/24 01:02:07;;;;;;;43.40;28.10;;;;;;;5.32;64.18;99359.86;2057553;85;27621;-72
2022/04/24 01:05:10;;;;;;;54.33;37.03;;;;;;;5.28;64.25;99356.96;2053742;86;28704;-71
2022/04/24 01:08:12;;;;;;;62.08;37.83;;;;;;;5.26;64.06;99360.59;2053976;85;31062;-72
2022/04/24 01:11:14;;;;;;;58.65;38.17;;;;;;;5.19;63.97;99352.03;2053614;86;33010;-72
2022/04/24 01:14:18;;;;;;;65.92;42.35;;;;;;;5.14;63.98;99350.02;2054075;85;29364;-72
2022/04/24 01:17:20;;;;;;;62.93;40.52;;;;;;;5.11;64.24;99356.81;2053852;86;27627;-72
2022/04/24 01:20:23;;;;;;;56.20;40.10;;;;;;;5.07;64.36;99356.54;2053819;85;28663;-72
2022/04/24 01:23:25;;;;;;;59.70;39.18;;;;;;;5.01;64.31;99353.20;2053824;86;31304;-71
2022/04/24 01:26:27;;;;;;;56.95;39.58;;;;;;;4.96;64.10;99349.91;2053974;86;32932;-71
2022/04/24 01:29:29;;;;;;;62.48;39.48;;;;;;;4.93;64.11;99355.78;2057170;85;30617;-71
2022/04/24 01:32:32;;;;;;;58.78;37.83;;;;;;;4.88;64.24;99351.15;2054091;86;27674;-71
2022/04/24 01:35:34;;;;;;;60.50;38.67;;;;;;;4.83;64.16;99349.55;2053657;86;28709;-71
2022/04/24 01:38:36;;;;;;;56.40;38.00;;;;;;;4.80;64.32;99348.81;2053963;86;30999;-72
2022/04/24 01:41:38;;;;;;;60.30;39.18;;;;;;;4.77;64.55;99344.95;2053954;86;33032;-72
2022/04/24 01:44:40;;;;;;;56.85;37.30;;;;;;;4.71;64.75;99344.27;2053874;86;29491;-71
2022/04/24 01:47:43;;;;;;;52.65;35.85;;;;;;;4.69;65.01;99339.48;2053930;86;27588;-72
2022/04/24 01:50:45;;;;;;;57.13;36.85;;;;;;;4.69;65.57;99337.31;2053836;85;28726;-71
2022/04/24 01:53:47;;;;;;;51.10;35.80;;;;;;;4.66;65.23;99335.63;2053826;86;31083;-72
2022/04/24 01:56:50;;;;;;;59.70;38.10;;;;;;;4.66;65.41;99336.95;2053726;86;32944;-73
2022/04/24 01:59:53;;;;;;;60.98;38.10;;;;;;;4.64;65.38;99333.50;2056818;86;30013;-72
2022/04/24 02:02:55;;;;;;;56.00;36.75;;;;;;;4.61;65.22;99321.70;2053769;86;27975;-73
2022/04/24 02:05:59;;;;;;;60.08;38.98;;;;;;;4.60;65.13;99335.02;2053668;85;28705;-72
2022/04/24 02:09:03;;;;;;;60.75;40.75;;;;;;;4.56;65.16;99325.85;2053982;86;31038;-71
2022/04/24 02:12:07;;;;;;;56.20;36.53;;;;;;;4.53;65.28;99326.00;2053639;86;32979;-72
2022/04/24 02:15:11;;;;;;;54.97;35.27;;;;;;;4.51;65.38;99322.55;2054290;86;29340;-71
2022/04/24 02:18:13;;;;;;;53.17;35.73;;;;;;;4.49;65.62;99319.09;2053808;86;27953;-70
2022/04/24 02:21:16;;;;;;;58.98;37.55;;;;;;;4.50;65.89;99315.95;2053736;86;28637;-71
2022/04/24 02:24:18;;;;;;;52.48;35.60;;;;;;;4.49;65.91;99314.23;2053593;86;31084;-71
2022/04/24 02:27:20;;;;;;;52.08;36.13;;;;;;;4.49;66.10;99315.11;2052929;86;33020;-72
2022/04/24 02:30:24;;;;;;;55.00;36.70;;;;;;;4.47;66.27;99316.11;2053006;85;29423;-71
2022/04/24 02:33:26;;;;;;;56.83;36.80;;;;;;;4.45;66.23;99312.65;2053787;86;27962;-72
2022/04/24 02:36:28;;;;;;;56.23;34.05;;;;;;;4.43;66.16;99305.22;2096575;79;28736;-58
2022/04/24 02:39:30;;;;;;;57.33;34.80;;;;;;;4.43;66.52;99299.44;2132964;83;30973;-59
2022/04/24 02:42:32;;;;;;;51.90;34.60;;;;;;;4.40;66.27;99303.08;2132338;83;34217;-59
2022/04/24 02:45:34;;;;;;;50.95;32.90;;;;;;;4.37;66.39;99295.73;2132580;83;29382;-59
2022/04/24 02:48:37;;;;;;;50.88;32.33;;;;;;;4.35;66.71;99286.48;2132776;83;27649;-59
2022/04/24 02:51:39;;;;;;;48.50;30.82;;;;;;;4.35;66.82;99289.62;2133037;83;29083;-59
2022/04/24 02:54:41;;;;;;;46.00;30.82;;;;;;;4.32;66.68;99281.78;2133062;83;32199;-59
2022/04/24 02:57:43;;;;;;;45.60;29.48;;;;;;;4.30;66.80;99276.55;2132484;83;34200;-60
2022/04/24 03:00:50;;;;;;;44.60;28.75;;;;;;;4.31;66.93;99279.58;2132960;83;29900;-59
2022/04/24 03:03:52;;;;;;;45.95;30.55;;;;;;;4.30;66.71;99274.34;2132317;83;27669;-59
2022/04/24 03:06:54;;;;;;;41.73;29.92;;;;;;;4.30;66.82;99267.27;2133012;83;29915;-60
2022/04/24 03:09:56;;;;;;;44.88;28.95;;;;;;;4.31;66.90;99265.47;2132924;83;31067;-60
2022/04/24 03:12:58;;;;;;;46.90;28.40;;;;;;;4.32;67.01;99257.44;2132518;83;34186;-60
2022/04/24 03:16:00;;;;;;;46.53;29.80;;;;;;;4.32;67.33;99255.27;2132985;83;30467;-60
2022/04/24 03:19:01;;;;;;;44.20;28.75;;;;;;;4.34;67.17;99257.40;2133030;83;27698;-60
2022/04/24 03:22:04;;;;;;;43.60;28.62;;;;;;;4.36;67.17;99256.88;2132768;83;29096;-60
2022/04/24 03:25:13;;;;;;;40.90;26.52;;;;;;;4.40;67.27;99251.82;2132607;83;31915;-58
2022/04/24 03:28:12;;;;;;;39.42;26.45;;;;;;;4.45;67.55;99253.83;2132252;83;32971;-59
2022/04/24 03:31:14;;;;;;;40.38;26.93;;;;;;;4.51;67.53;99254.03;2132718;83;30554;-59
2022/04/24 03:34:17;;;;;;;40.03;27.07;;;;;;;4.58;67.34;99256.84;2133295;83;27654;-59
2022/04/24 03:37:19;;;;;;;38.15;26.33;;;;;;;4.64;67.54;99254.39;2132558;83;29781;-59
2022/04/24 03:40:21;;;;;;;43.90;28.87;;;;;;;4.69;67.57;99254.59;2132663;83;30232;-59
2022/04/24 03:43:23;;;;;;;38.55;26.52;;;;;;;4.76;67.60;99253.02;2132153;83;34279;-60
2022/04/24 03:46:25;;;;;;;38.55;25.80;;;;;;;4.83;67.45;99245.17;2132576;83;30488;-60
2022/04/24 03:49:27;;;;;;;37.70;24.72;;;;;;;4.88;67.51;99248.98;2133142;83;27686;-59
2022/04/24 03:52:29;;;;;;;37.67;24.57;;;;;;;4.95;67.71;99242.46;2132493;83;30074;-59
2022/04/24 03:55:31;;;;;;;36.83;24.85;;;;;;;5.01;67.51;99240.88;2132352;83;32353;-59
2022/04/24 03:58:32;;;;;;;36.08;23.45;;;;;;;5.09;67.51;99241.86;2132716;83;33319;-59
2022/04/24 04:01:35;;;;;;;29.95;20.25;;;;;;;5.14;67.42;99246.48;2132820;83;30141;-59
2022/04/24 04:04:37;;;;;;;33.73;22.22;;;;;;;5.22;67.41;99243.03;2132830;83;27967;-59
2022/04/24 04:07:40;;;;;;;32.90;21.40;;;;;;;5.28;67.14;99245.42;2132706;83;29553;-59
2022/04/24 04:10:42;;;;;;;30.15;19.42;;;;;;;5.37;67.20;99243.27;2132330;83;32277;-59
2022/04/24 04:13:44;;;;;;;30.23;20.43;;;;;;;5.45;67.11;99239.34;2132485;83;33705;-59
2022/04/24 04:16:45;;;;;;;30.90;19.55;;;;;;;5.56;67.16;99239.30;2132778;83;30438;-59
2022/04/24 04:19:47;;;;;;;27.62;18.12;;;;;;;5.68;67.02;99240.53;2132600;83;27699;-59
2022/04/24 04:22:55;;;;;;;27.75;18.95;;;;;;;5.81;66.80;99248.31;2132707;83;30095;-59
2022/04/24 04:25:58;;;;;;;27.35;17.92;;;;;;;5.92;66.62;99249.14;2132676;83;31043;-59
2022/04/24 04:29:00;;;;;;;26.70;17.92;;;;;;;6.06;66.44;99255.17;2132667;83;33105;-59
2022/04/24 04:32:03;;;;;;;26.65;18.20;;;;;;;6.18;66.40;99255.06;2132613;83;30109;-59
2022/04/24 04:35:09;;;;;;;21.48;15.63;;;;;;;6.31;66.10;99254.84;2132399;83;27700;-61
2022/04/24 04:38:09;;;;;;;26.57;16.25;;;;;;;6.47;65.91;99257.59;2132423;83;28903;-59
2022/04/24 04:41:12;;;;;;;30.57;16.87;;;;;;;6.63;65.70;99265.69;2132863;83;31212;-60
2022/04/24 04:44:14;;;;;;;27.80;15.75;;;;;;;6.79;65.57;99267.58;2132551;83;32379;-60
2022/04/24 04:47:16;;;;;;;20.43;13.55;;;;;;;7.01;65.44;99271.81;2132654;83;29176;-59
2022/04/24 04:50:18;;;;;;;22.17;14.70;;;;;;;7.35;64.96;99261.57;2133172;83;27593;-60
2022/04/24 04:53:21;;;;;;;20.92;14.55;;;;;;;7.87;64.60;99255.69;2132446;83;29912;-61
2022/04/24 04:56:23;;;;;;;16.87;12.25;;;;;;;8.45;63.89;99258.20;2132651;83;30943;-60
2022/04/24 04:59:25;;;;;;;19.45;12.80;;;;;;;9.03;63.02;99258.40;2132620;83;32406;-60
2022/04/24 05:02:27;;;;;;;17.10;11.95;;;;;;;9.54;62.06;99254.44;2132684;83;29856;-61
2022/04/24 05:05:29;;;;;;;21.52;12.53;;;;;;;10.00;61.24;99250.22;2132508;83;27663;-61
2022/04/24 05:08:31;;;;;;;18.15;10.90;;;;;;;10.47;60.37;99253.93;2132351;83;30115;-59
2022/04/24 05:11:33;;;;;;;17.27;12.00;;;;;;;10.96;60.24;99247.57;2132718;83;32169;-59
2022/04/24 05:14:35;;;;;;;13.05;9.55;;;;;;;11.40;58.53;99248.52;2132709;83;33774;-60
2022/04/24 05:17:37;;;;;;;15.43;9.68;;;;;;;11.82;56.17;99244.23;2132775;83;29704;-60
2022/04/24 05:20:38;;;;;;;17.60;10.05;;;;;;;12.26;57.46;99247.34;2132813;83;27627;-60
2022/04/24 05:23:44;;;;;;;12.18;9.65;;;;;;;12.58;56.75;99242.73;2132776;83;29936;-60
2022/04/24 05:26:44;;;;;;;12.47;9.48;;;;;;;12.82;55.69;99247.73;2131857;83;32366;-60
2022/04/24 05:29:47;;;;;;;14.45;9.55;;;;;;;13.10;55.86;99250.98;2132505;83;33061;-60
2022/04/24 05:32:49;;;;;;;13.53;9.08;;;;;;;13.13;54.97;99240.84;2132634;83;29462;-60
2022/04/24 05:35:51;;;;;;;11.95;9.05;;;;;;;13.21;53.79;99242.47;2132597;83;27733;-61
2022/04/24 05:38:53;;;;;;;13.20;8.85;;;;;;;13.31;53.88;99243.08;2127714;83;29833;-60
2022/04/24 05:41:55;;;;;;;15.18;8.83;;;;;;;13.24;52.93;99231.95;2127191;83;30460;-62
2022/04/24 05:45:01;;;;;;;13.93;9.55;;;;;;;13.02;51.31;99234.11;2126771;83;34205;-59
2022/04/24 05:48:04;;;;;;;13.38;9.68;;;;;;;12.92;52.63;99239.33;2126756;83;30525;-61
2022/04/24 05:51:07;;;;;;;13.55;9.23;;;;;;;13.01;52.13;99237.27;2127152;83;27751;-60
2022/04/24 05:54:10;;;;;;;12.10;9.03;;;;;;;13.29;51.50;99243.21;2127083;83;29876;-61
2022/04/24 05:57:12;;;;;;;12.85;9.03;;;;;;;13.63;51.43;99245.09;2126999;83;32016;-61
2022/04/24 06:00:16;;;;;;;13.08;9.83;;;;;;;13.84;50.56;99238.47;2126719;83;33705;-61
2022/04/24 06:03:18;;;;;;;16.57;10.23;;;;;;;14.02;50.53;99234.80;2127215;83;30124;-60
2022/04/24 06:06:20;;;;;;;12.37;9.08;;;;;;;14.00;50.24;99234.06;2127262;83;27734;-61
2022/04/24 06:09:23;;;;;;;14.35;9.65;;;;;;;14.03;50.32;99231.13;2126756;83;29582;-60
2022/04/24 06:12:25;;;;;;;13.48;8.78;;;;;;;14.21;50.52;99225.22;2126789;83;32387;-60
2022/04/24 06:15:28;;;;;;;11.68;9.50;;;;;;;14.48;49.13;99215.31;2127140;83;33075;-61
2022/04/24 06:18:30;;;;;;;12.63;9.48;;;;;;;14.75;49.68;99216.72;2126899;83;29440;-60
2022/04/24 06:21:32;;;;;;;11.73;8.43;;;;;;;15.13;49.46;99213.06;2126823;83;27547;-61
2022/04/24 06:24:37;;;;;;;13.83;9.70;;;;;;;15.27;47.68;99199.23;2126847;83;29958;-59
2022/04/24 06:27:39;;;;;;;;;;;;;;;15.32;47.82;99206.44;2129630;83;32209;-62
2022/04/24 06:30:43;;;;;;;12.73;9.55;;;;;;;15.24;47.85;99198.14;2126658;83;33513;-60
2022/04/24 06:33:45;;;;;;;13.40;9.50;;;;;;;15.23;48.55;99196.94;2127058;83;29346;-61
2022/04/24 06:36:48;;;;;;;13.80;9.23;;;;;;;15.22;48.12;99193.40;2126954;83;27649;-62
2022/04/24 06:39:50;;;;;;;11.68;9.63;;;;;;;15.19;48.27;99185.56;2126667;83;29602;-60
2022/04/24 06:43:01;;;;;;;13.60;8.48;;;;;;;15.30;47.94;99190.88;2126949;83;31882;-60
2022/04/24 06:46:04;;;;;;;14.85;9.35;;;;;;;15.53;48.21;99183.09;2127102;83;32961;-61
2022/04/24 06:49:06;;;;;;;13.85;9.38;;;;;;;16.07;47.85;99155.33;2126851;83;29976;-60
2022/04/24 06:52:09;;;;;;;11.65;8.85;;;;;;;17.03;47.15;99168.64;2126925;83;27789;-61
2022/04/24 06:55:13;;;;;;;10.03;8.05;;;;;;;17.79;46.78;99163.56;2126653;83;28130;-61
2022/04/24 06:58:17;;;;;;;11.73;8.33;;;;;;;18.57;44.64;99150.50;2126896;83;31035;-61
2022/04/24 07:01:21;;;;;;;9.50;7.92;;;;;;;19.05;42.41;99153.77;2127099;83;32955;-62
2022/04/24 07:04:23;;;;;;;12.43;9.70;;;;;;;19.26;42.38;99145.27;2127154;83;30467;-61
2022/04/24 07:07:26;;;;;;;10.38;9.00;;;;;;;19.10;42.07;99146.87;2127216;83;27440;-61
2022/04/24 07:10:28;;;;;;;14.73;9.48;;;;;;;18.91;40.53;99149.75;2126859;83;29906;-60
2022/04/24 07:13:30;;;;;;;14.28;9.65;;;;;;;18.19;39.11;99152.03;2126984;83;32404;-60
2022/04/24 07:16:34;;;;;;;13.93;9.50;;;;;;;17.70;41.81;99147.73;2127647;83;33865;-60
2022/04/24 07:19:37;;;;;;;12.40;9.78;;;;;;;17.22;41.51;99152.35;2127265;83;28576;-60
2022/04/24 07:22:53;;;;;;;11.78;8.30;;;;;;;16.73;41.36;99140.25;2127360;83;27638;-59
2022/04/24 07:25:55;;;;;;;13.15;9.53;;;;;;;16.36;41.92;99135.09;2127369;83;28691;-60
2022/04/24 07:28:57;;;;;;;11.25;8.95;;;;;;;16.03;42.11;99137.72;2127438;83;32186;-60
2022/04/24 07:31:59;;;;;;;13.78;9.25;;;;;;;15.72;41.97;99137.77;2127294;83;32887;-60
2022/04/24 07:35:02;;;;;;;11.90;9.35;;;;;;;15.37;42.80;99138.56;2127308;83;29533;-60
2022/04/24 07:38:05;;;;;;;10.85;8.35;;;;;;;15.09;43.18;99132.04;2127095;83;27670;-60
2022/04/24 07:41:07;;;;;;;12.50;8.85;;;;;;;14.89;43.75;99094.20;2127004;83;29668;-59
2022/04/24 07:44:08;;;;;;;15.10;9.00;;;;;;;14.71;43.66;99100.69;2126927;83;32396;-59
2022/04/24 07:47:10;;;;;;;10.63;8.00;;;;;;;14.71;43.66;99100.69;2127052;83;33643;-60
2022/04/24 07:50:14;;;;;;;11.60;9.20;;;;;;;14.69;43.79;99126.44;2127123;83;30101;-60
2022/04/24 07:53:18;;;;;;;13.13;9.30;;;;;;;14.71;44.61;99115.03;2127070;83;27677;-60
2022/04/24 07:56:21;;;;;;;12.88;9.35;;;;;;;14.91;44.40;99112.42;2127569;83;28702;-60
2022/04/24 07:59:23;;;;;;;13.50;10.45;;;;;;;15.04;44.18;99115.79;2126895;83;31894;-61
2022/04/24 08:02:25;;;;;;;14.53;10.48;;;;;;;14.97;43.85;99113.77;2126754;83;34256;-60
2022/04/24 08:05:40;;;;;;;14.73;10.65;;;;;;;14.88;44.13;99117.61;2126797;83;30539;-60
2022/04/24 08:08:41;;;;;;;17.05;11.25;;;;;;;14.86;44.15;99124.97;2127277;83;36843;-60
2022/04/24 08:11:43;;;;;;;16.52;11.78;;;;;;;14.72;44.17;99124.84;2127264;83;29719;-61
2022/04/24 08:14:45;;;;;;;15.25;10.75;;;;;;;14.72;44.12;99117.22;2126961;83;32285;-61
2022/04/24 08:17:47;;;;;;;17.50;10.50;;;;;;;14.82;44.18;99124.02;2127302;83;33987;-61
2022/04/24 08:20:49;;;;;;;15.23;10.68;;;;;;;14.92;44.15;99127.62;2127281;83;29898;-61
2022/04/24 08:23:51;;;;;;;14.10;10.70;;;;;;;14.94;43.72;99138.30;2127503;83;27603;-61
2022/04/24 08:26:53;;;;;;;16.60;11.63;;;;;;;14.94;43.87;99118.91;2127241;83;29061;-61
2022/04/24 08:29:56;;;;;;;16.85;12.70;;;;;;;14.94;43.92;99124.30;2126939;83;32294;-61
2022/04/24 08:32:57;;;;;;;17.37;12.63;;;;;;;15.03;44.37;99120.82;2127211;83;32900;-61
2022/04/24 08:35:59;;;;;;;17.02;12.20;;;;;;;15.03;44.37;99120.82;2126975;83;30558;-60
2022/04/24 08:39:01;;;;;;;14.85;11.28;;;;;;;14.95;44.03;99129.22;2130174;83;27690;-61
2022/04/24 08:42:05;;;;;;;17.62;12.07;;;;;;;14.88;43.87;99127.55;2132465;83;29987;-61
2022/04/24 08:45:11;;;;;;;16.30;11.30;;;;;;;14.76;44.01;99137.55;2132741;83;31058;-63
2022/04/24 08:48:13;;;;;;;17.15;11.65;;;;;;;14.69;44.28;99143.09;2132291;83;33832;-62
2022/04/24 08:51:16;;;;;;;13.88;11.05;;;;;;;14.55;44.54;99139.70;2105927;83;30548;-61
2022/04/24 08:54:19;;;;;;;12.63;9.88;;;;;;;14.51;44.92;99134.20;2132872;83;27535;-61
2022/04/24 08:57:26;;;;;;;14.80;11.50;;;;;;;14.53;44.98;99127.36;2132578;83;29183;-61
2022/04/24 09:00:27;;;;;;;15.72;9.93;;;;;;;14.46;45.05;99127.50;2131941;83;32262;-61
2022/04/24 09:03:29;;;;;;;13.90;9.93;;;;;;;14.38;45.27;99122.29;2132798;83;33201;-59
2022/04/24 09:06:31;;;;;;;14.05;9.80;;;;;;;14.33;45.44;99125.86;2132775;83;30290;-61
2022/04/24 09:09:43;;;;;;;12.47;9.58;;;;;;;14.25;45.71;99122.94;2132781;83;27632;-61
2022/04/24 09:12:54;;;;;;;14.50;9.73;;;;;;;14.21;45.98;99114.78;2132559;83;28914;-61
2022/04/24 09:15:57;;;;;;;15.28;10.05;;;;;;;14.08;45.99;99118.47;2132780;83;32061;-60
2022/04/24 09:19:00;;;;;;;13.70;9.33;;;;;;;14.05;46.26;99110.67;2132601;83;34079;-59
2022/04/24 09:22:06;;;;;;;13.35;9.98;;;;;;;14.05;46.24;99097.69;2132639;83;28754;-61
2022/04/24 09:25:10;;;;;;;14.07;9.63;;;;;;;14.08;46.32;99108.20;2132826;83;27686;-60
2022/04/24 09:28:12;;;;;;;14.40;9.58;;;;;;;14.06;46.26;99109.70;2133015;83;28665;-60
2022/04/24 09:31:14;;;;;;;12.73;9.98;;;;;;;14.09;46.43;99116.15;2132265;83;31879;-61
2022/04/24 09:34:21;;;;;;;10.85;8.83;;;;;;;14.13;46.28;99110.03;2132664;83;33334;-60
2022/04/24 09:37:23;;;;;;;14.07;8.65;;;;;;;14.20;46.45;99096.91;2132661;83;29145;-60
2022/04/24 09:40:25;;;;;;;12.68;8.85;;;;;;;14.26;46.45;99093.20;2127498;83;27722;-60
2022/04/24 09:43:28;;;;;;;15.15;9.60;;;;;;;14.38;46.04;99096.70;2126901;83;29392;-61
2022/04/24 09:46:31;;;;;;;11.68;7.95;;;;;;;14.43;45.95;99089.56;2127364;83;31865;-60
2022/04/24 09:49:42;;;;;;;12.53;8.65;;;;;;;14.57;46.05;99082.48;2127309;83;33006;-61
2022/04/24 09:52:46;;;;;;;11.05;9.03;;;;;;;14.84;45.92;99076.22;2127184;83;30110;-61
2022/04/24 09:55:52;;;;;;;14.45;8.78;;;;;;;15.15;45.57;99068.12;2127632;83;27571;-61
2022/04/24 09:58:56;;;;;;;13.80;9.08;;;;;;;15.40;45.54;99060.52;2126914;83;30040;-61
2022/04/24 10:01:59;;;;;;;20.08;14.10;;;;;;;15.56;44.30;99054.09;2127558;83;31026;-61
2022/04/24 10:05:04;;;;;;;14.70;9.50;;;;;;;15.55;44.53;99052.41;2126861;83;33841;-62
2022/04/24 10:08:07;;;;;;;12.50;9.33;;;;;;;15.62;44.08;99053.54;2127351;83;29330;-70
2022/04/24 10:11:10;;;;;;;16.15;10.72;;;;;;;15.54;43.47;99057.92;2127313;83;27721;-62
2022/04/24 10:14:14;;;;;;;11.00;8.53;;;;;;;15.43;43.98;99017.93;2127175;83;28671;-61
2022/04/24 10:17:53;;;;;;;11.57;9.03;;;;;;;15.43;43.98;99017.93;2104944;83;31038;-61
2022/04/24 10:21:40;;;;;;;11.57;9.85;;;;;;;15.65;43.46;99033.02;2126886;83;34218;-60
2022/04/24 10:24:44;;;;;;;13.30;9.40;;;;;;;15.82;43.71;99021.64;2127167;83;30602;-59
2022/04/24 10:27:49;;;;;;;14.20;11.03;;;;;;;16.07;43.32;99010.80;2127312;83;27645;-59
2022/04/24 10:31:03;;;;;;;14.25;9.53;;;;;;;16.25;42.38;99013.64;2127347;83;27862;-59
2022/04/24 10:34:06;;;;;;;13.85;10.70;;;;;;;16.25;42.38;99013.64;2127185;83;31073;-59
2022/04/24 10:37:09;;;;;;;12.03;9.90;;;;;;;16.25;41.92;99008.23;2126870;83;33933;-60
2022/04/24 10:40:17;;;;;;;12.50;8.80;;;;;;;16.29;41.75;99000.20;2104521;83;30568;-61
2022/04/24 10:43:21;;;;;;;13.03;9.05;;;;;;;16.37;42.28;98996.77;2127102;83;28061;-59
2022/04/24 10:46:30;;;;;;;14.63;10.40;;;;;;;16.53;42.05;99004.25;2127275;83;29243;-60
2022/04/24 10:49:35;;;;;;;10.23;8.40;;;;;;;16.45;41.45;98997.38;2127343;83;31039;-59
2022/04/24 10:52:43;;;;;;;13.13;9.63;;;;;;;16.28;40.75;99004.38;2127482;83;33682;-59
2022/04/24 10:55:45;;;;;;;14.83;10.23;;;;;;;16.10;41.72;98988.42;2126832;83;30156;-59
2022/04/24 10:58:51;;;;;;;13.32;9.93;;;;;;;16.00;41.48;98993.47;2127323;83;27770;-60
2022/04/24 11:01:58;;;;;;;;;;;;;;;15.86;42.02;98991.56;2129825;83;28694;-65
2022/04/24 11:05:07;;;;;;;13.50;9.50;;;;;;;15.81;41.97;98988.41;2127375;83;31069;-59
2022/04/24 11:08:17;;;;;;;12.13;9.40;;;;;;;15.69;41.57;98986.33;2127101;83;33122;-60
2022/04/24 11:11:15;;;;;;;11.80;9.15;;;;;;;15.53;41.43;98984.69;2126387;83;30107;-59
2022/04/24 11:14:22;;;;;;;15.18;8.85;;;;;;;15.42;42.01;98981.14;2127047;83;27633;-59
2022/04/24 11:17:24;;;;;;;15.63;9.88;;;;;;;15.36;42.12;98980.34;2127211;83;29526;-60
2022/04/24 11:20:31;;;;;;;13.48;9.05;;;;;;;15.34;42.45;98995.81;2126856;83;32515;-59
2022/04/24 11:23:36;;;;;;;11.15;9.18;;;;;;;15.28;42.35;98983.73;2126305;83;34391;-61
2022/04/24 11:26:38;;;;;;;12.07;8.08;;;;;;;15.28;42.35;98983.73;2127135;83;30156;-63
2022/04/24 11:29:45;;;;;;;12.50;9.00;;;;;;;15.23;42.38;98990.03;2126899;83;27708;-61
2022/04/24 11:33:06;;;;;;;10.85;8.68;;;;;;;15.14;42.70;98976.04;2126628;83;29531;-60
2022/04/24 11:36:08;;;;;;;17.10;8.60;;;;;;;15.11;42.42;98977.66;2126926;83;31196;-61
2022/04/24 11:39:10;;;;;;;16.07;9.60;;;;;;;15.08;42.52;98974.75;2127953;83;33899;-61
2022/04/24 11:42:12;;;;;;;12.53;8.80;;;;;;;15.08;42.82;98969.36;2132255;83;29757;-60
2022/04/24 11:51:59;;;;;;;12.03;9.33;;;;;;;15.02;43.41;98956.41;2132682;83;32072;-61
2022/04/24 11:55:05;;;;;;;10.88;7.60;;;;;;;15.11;43.82;98955.60;2132296;83;34391;-61
2022/04/24 11:58:08;;;;;;;8.50;7.60;;;;;;;15.16;43.61;98968.67;2132385;83;29346;-68
2022/04/24 12:01:14;;;;;;;37.13;21.25;;;;;;;15.09;43.32;98959.41;2132851;83;27707;-72
2022/04/24 12:04:19;;;;;;;21.87;12.78;;;;;;;15.06;43.55;98962.41;2105910;83;29585;-64
2022/04/24 12:07:32;;;;;;;13.20;9.55;;;;;;;15.02;42.98;98955.94;2132334;83;31231;-67
2022/04/24 12:10:35;;;;;;;10.95;8.05;;;;;;;15.07;43.57;98961.39;2132390;83;33849;-63
2022/04/24 12:13:37;;;;;;;15.63;9.65;;;;;;;15.12;43.39;98953.74;2132417;83;30646;-63
2022/04/24 12:17:04;;;;;;;22.45;12.50;;;;;;;15.19;43.87;98951.70;2132642;83;28196;-62
2022/04/24 12:20:07;;;;;;;21.33;14.30;;;;;;;15.35;44.08;98944.90;2194729;81;29273;-68
2022/04/24 12:23:12;;;;;;;15.28;8.95;;;;;;;15.58;43.99;98952.73;2165356;82;32049;-61
2022/04/24 12:26:14;;;;;;;10.18;8.50;;;;;;;15.67;42.35;98950.52;2194898;80;33844;-61
2022/04/24 12:29:21;;;;;;;11.63;9.78;;;;;;;15.65;42.69;98955.20;2194405;81;30685;-67
2022/04/24 12:32:28;;;;;;;10.40;7.58;;;;;;;15.53;42.37;98957.70;2194740;81;27699;-61
2022/04/24 12:35:35;;;;;;;8.93;7.85;;;;;;;15.39;42.16;98940.09;2194702;81;28735;-63
2022/04/24 12:38:37;;;;;;;9.03;8.03;;;;;;;15.33;42.29;98938.78;2189270;81;31577;-73
2022/04/24 12:41:41;;;;;;;12.55;7.42;;;;;;;15.25;42.43;98951.63;2194312;81;34228;-62
2022/04/24 12:44:44;;;;;;;12.47;7.95;;;;;;;15.06;43.10;98943.02;2194938;81;29506;-61
2022/04/24 12:47:47;;;;;;;10.10;8.10;;;;;;;14.84;43.23;98935.50;2194826;81;27631;-61
2022/04/24 12:50:52;;;;;;;17.82;12.65;;;;;;;14.72;43.91;98936.13;2194890;79;28649;-63
2022/04/24 12:53:56;;;;;;;;;;;;;;;14.64;44.35;98930.52;2167499;82;32836;-71
2022/04/24 12:56:58;;;;;;;11.55;8.98;;;;;;;14.60;45.12;98934.47;2194401;81;33012;-72
2022/04/24 13:00:00;;;;;;;16.02;10.78;;;;;;;14.48;45.85;98931.52;2194247;81;30186;-64
2022/04/24 13:03:02;;;;;;;12.25;10.32;;;;;;;14.35;46.65;98923.17;2194822;81;27516;-65
2022/04/24 13:06:06;;;;;;;24.02;17.32;;;;;;;14.23;47.36;98929.64;2194560;81;29662;-69
2022/04/24 13:09:10;;;;;;;19.45;15.78;;;;;;;14.03;47.96;98924.62;2194334;81;32331;-80
2022/04/24 13:12:13;;;;;;;16.10;13.65;;;;;;;13.91;48.96;98926.52;2165317;82;32965;-68
2022/04/24 13:15:16;;;;;;;28.60;21.50;;;;;;;13.77;50.40;98919.14;2194552;81;30466;-66
2022/04/24 13:18:21;;;;;;;21.37;18.27;;;;;;;13.59;50.25;98913.98;2187017;79;27726;-73
2022/04/24 13:21:23;;;;;;;22.80;15.30;;;;;;;13.45;51.00;98912.47;2173529;81;28908;-77
2022/04/24 13:24:25;;;;;;;19.55;14.80;;;;;;;13.28;52.11;98916.52;2173524;81;30926;-73
2022/04/24 13:27:27;;;;;;;20.62;17.90;;;;;;;13.10;53.35;98910.86;2173077;81;33937;-72
2022/04/24 13:30:30;;;;;;;18.37;14.33;;;;;;;12.90;56.29;98905.28;2172912;81;29754;-66
2022/04/24 13:33:32;;;;;;;17.67;15.68;;;;;;;12.69;57.18;98904.70;2173193;81;27700;-64
2022/04/24 13:36:34;;;;;;;21.33;14.83;;;;;;;12.53;56.29;98905.10;2172798;81;30055;-71
2022/04/24 13:39:37;;;;;;;19.25;15.72;;;;;;;12.39;57.62;98902.67;2172727;81;32352;-68
2022/04/24 13:42:39;;;;;;;21.60;18.60;;;;;;;12.16;60.68;98904.00;2172738;81;33629;-60
2022/04/24 13:45:41;;;;;;;18.37;15.95;;;;;;;11.89;61.88;98898.45;2173202;81;30431;-67
2022/04/24 13:48:43;;;;;;;24.27;17.87;;;;;;;11.70;61.62;98896.33;2172865;81;28303;-67
2022/04/24 13:51:46;;;;;;;21.85;17.05;;;;;;;11.55;62.22;98887.64;2173111;81;29470;-67
2022/04/24 13:54:48;;;;;;;24.45;19.30;;;;;;;11.41;62.16;98877.96;2172714;81;31332;-66
2022/04/24 13:57:50;;;;;;;24.70;17.65;;;;;;;11.28;61.63;98875.34;2172858;81;34155;-66
2022/04/24 14:00:55;;;;;;;21.77;17.57;;;;;;;11.21;63.34;98864.73;2172807;81;30520;-67
2022/04/24 14:03:57;;;;;;;;;;;;;;;11.12;63.47;98863.61;2175828;81;28000;-60
2022/04/24 14:06:58;;;;;;;24.65;19.35;;;;;;;11.03;64.67;98851.75;2173095;81;29838;-67
2022/04/24 14:10:02;;;;;;;26.12;19.00;;;;;;;10.90;66.38;98846.95;2172690;81;31877;-63
2022/04/24 14:13:05;;;;;;;18.35;14.70;;;;;;;10.88;65.38;98841.69;2173007;81;33114;-67
2022/04/24 14:16:07;;;;;;;19.23;16.20;;;;;;;10.84;65.29;98836.67;2173091;81;29160;-66
2022/04/24 14:19:09;;;;;;;27.77;21.05;;;;;;;10.78;66.13;98842.84;2172872;81;27865;-66